Time;durP1;ratioP1;P1;durP2;ratioP2;P2;SDS_P1;SDS_P2;PMS_P1;PMS_P2;Temp;Humidity;BMP_temperature;BMP_pressure;BME280_temperature;BME280_humidity;BME280_pressure;Samples;Min_cycle;Max_cycle;Signal;HPM_P1;HPM_P2
2023/04/27 00:00:56;;;;;;;24.08;22.48;;;;;;;14.80;45.54;101965.84;4982805;28;20116;-68
2023/04/27 00:03:22;;;;;;;23.05;21.75;;;;;;;14.79;45.49;101956.03;5000417;28;20026;-68
2023/04/27 00:05:47;;;;;;;24.85;23.30;;;;;;;14.77;45.37;101952.75;5000961;28;20045;-68
2023/04/27 00:08:12;;;;;;;23.02;21.73;;;;;;;14.75;45.74;101961.13;5000124;28;20038;-68
2023/04/27 00:10:38;;;;;;;22.77;21.40;;;;;;;14.74;45.62;101961.38;4983360;28;20041;-72
2023/04/27 00:13:03;;;;;;;24.67;23.25;;;;;;;14.72;45.53;101964.34;5000131;28;20093;-68
2023/04/27 00:15:29;;;;;;;23.02;21.83;;;;;;;14.70;45.60;101970.00;4982771;28;20033;-68
2023/04/27 00:17:56;;;;;;;23.88;22.55;;;;;;;14.67;45.30;101970.50;4999035;28;20030;-68
2023/04/27 00:20:22;;;;;;;22.33;20.80;;;;;;;14.65;45.53;101969.91;5000317;28;20045;-68
2023/04/27 00:22:49;;;;;;;23.20;21.90;;;;;;;14.64;45.25;101968.25;4999831;28;20050;-69
2023/04/27 00:25:14;;;;;;;22.70;21.40;;;;;;;14.62;45.37;101967.66;5000293;28;20037;-69
2023/04/27 00:27:40;;;;;;;23.13;21.80;;;;;;;14.60;45.59;101967.06;5000200;28;20034;-71
2023/04/27 00:30:06;;;;;;;22.58;21.27;;;;;;;14.59;45.58;101962.72;4999935;28;20026;-69
2023/04/27 00:32:32;;;;;;;23.70;22.15;;;;;;;14.56;45.52;101955.00;5000244;28;20038;-69
2023/04/27 00:34:57;;;;;;;24.08;22.67;;;;;;;14.55;45.80;101964.25;4982781;28;20040;-70
2023/04/27 00:37:23;;;;;;;21.48;20.23;;;;;;;14.54;45.59;101959.03;4983308;28;20499;-68
2023/04/27 00:39:48;;;;;;;24.48;22.80;;;;;;;14.52;45.59;101956.56;4982400;28;20097;-68
2023/04/27 00:42:18;;;;;;;23.00;21.70;;;;;;;14.51;45.48;101952.16;4999993;28;20038;-68
2023/04/27 00:44:43;;;;;;;22.85;21.48;;;;;;;14.50;45.21;101954.06;5000132;28;20035;-70
2023/04/27 00:47:10;;;;;;;21.73;20.42;;;;;;;14.47;45.39;101959.16;5000255;28;20034;-69
2023/04/27 00:49:36;;;;;;;22.40;21.20;;;;;;;14.46;45.55;101952.06;5000024;28;20073;-69
2023/04/27 00:52:01;;;;;;;22.45;21.13;;;;;;;14.43;45.32;101958.78;5000051;28;20076;-67
2023/04/27 00:54:27;;;;;;;22.58;21.30;;;;;;;14.41;45.42;101960.09;5000051;28;20466;-68
2023/04/27 00:56:52;;;;;;;23.00;21.60;;;;;;;14.39;45.31;101959.50;5000010;28;20467;-68
2023/04/27 00:59:18;;;;;;;23.27;21.58;;;;;;;14.38;45.34;101964.13;5000262;28;20030;-67
2023/04/27 01:01:45;;;;;;;21.65;20.40;;;;;;;14.36;45.28;101960.81;4982484;28;20030;-69
2023/04/27 01:04:11;;;;;;;21.23;20.13;;;;;;;14.34;45.40;101953.97;4997385;28;20034;-67
2023/04/27 01:06:38;;;;;;;22.33;20.98;;;;;;;14.33;45.21;101958.56;4996348;28;20061;-67
2023/04/27 01:09:04;;;;;;;23.25;21.85;;;;;;;14.31;45.28;101959.88;4979569;28;20084;-67
2023/04/27 01:11:30;;;;;;;22.17;20.85;;;;;;;14.28;45.62;101961.19;4997370;28;20041;-67
2023/04/27 01:13:56;;;;;;;23.48;22.08;;;;;;;14.26;45.14;101958.72;4996647;28;20026;-67
2023/04/27 01:16:21;;;;;;;21.83;20.63;;;;;;;14.25;45.15;101958.94;4996973;28;20030;-68
2023/04/27 01:18:47;;;;;;;22.70;21.38;;;;;;;14.22;45.26;101960.25;4996570;28;20045;-68
2023/04/27 01:21:12;;;;;;;20.60;19.38;;;;;;;14.21;45.34;101961.31;4997140;28;20113;-68
2023/04/27 01:23:37;;;;;;;21.80;20.30;;;;;;;14.19;45.21;101951.75;4979215;28;20382;-67
2023/04/27 01:26:03;;;;;;;23.83;22.42;;;;;;;14.18;45.22;101958.22;4996699;28;20218;-68
2023/04/27 01:28:28;;;;;;;21.85;20.58;;;;;;;14.16;45.25;101955.78;4996757;28;20137;-69
2023/04/27 01:30:54;;;;;;;22.60;21.08;;;;;;;14.15;45.24;101956.00;4996438;28;20034;-68
2023/04/27 01:33:19;;;;;;;21.00;19.80;;;;;;;14.12;45.33;101960.00;4996442;28;20092;-68
2023/04/27 01:35:45;;;;;;;21.27;19.75;;;;;;;14.11;45.21;101955.66;4996419;28;20109;-68
2023/04/27 01:38:11;;;;;;;23.55;22.08;;;;;;;14.09;45.29;101951.53;4996322;28;20122;-68
2023/04/27 01:40:37;;;;;;;21.27;20.08;;;;;;;14.07;45.12;101949.03;4996740;28;20046;-68
2023/04/27 01:43:02;;;;;;;22.80;21.40;;;;;;;14.05;45.35;101953.88;4996175;28;20421;-68
2023/04/27 01:45:27;;;;;;;21.33;19.92;;;;;;;14.03;45.24;101948.66;4996153;28;20121;-68
2023/04/27 01:47:53;;;;;;;23.38;21.88;;;;;;;14.02;45.24;101952.44;4978663;28;20454;-68
2023/04/27 01:50:19;;;;;;;20.65;19.50;;;;;;;13.99;45.28;101949.38;4995839;28;20100;-68
2023/04/27 01:52:45;;;;;;;21.38;20.10;;;;;;;13.98;45.09;101939.56;4996090;28;20034;-68
2023/04/27 01:55:11;;;;;;;21.13;19.92;;;;;;;13.96;45.38;101944.41;4996245;28;20037;-68
2023/04/27 01:57:36;;;;;;;22.20;20.58;;;;;;;13.94;45.18;101941.94;4978256;28;20089;-68
2023/04/27 02:00:04;;;;;;;22.23;20.92;;;;;;;13.93;45.27;101942.16;4995639;28;20069;-67
2023/04/27 02:02:29;;;;;;;21.08;19.85;;;;;;;13.91;45.04;101941.56;4995487;28;20394;-67
2023/04/27 02:04:55;;;;;;;22.63;21.23;;;;;;;13.89;45.25;101933.69;4995769;28;20026;-67
2023/04/27 02:07:20;;;;;;;20.80;19.60;;;;;;;13.87;45.28;101935.78;4977814;28;20065;-68
2023/04/27 02:09:46;;;;;;;21.00;19.80;;;;;;;13.87;45.22;101934.97;4978674;28;20454;-68
2023/04/27 02:12:11;;;;;;;20.90;19.70;;;;;;;13.84;45.25;101930.84;4978221;28;20177;-68
2023/04/27 02:14:36;;;;;;;22.25;20.33;;;;;;;13.83;45.13;101940.88;4995701;28;20041;-67
2023/04/27 02:17:02;;;;;;;24.60;23.15;;;;;;;13.81;45.17;101931.31;4961411;28;20030;-67
2023/04/27 02:19:27;;;;;;;21.38;20.27;;;;;;;13.79;45.35;101922.56;4978200;28;20063;-68
2023/04/27 02:21:53;;;;;;;21.52;20.30;;;;;;;13.78;45.23;101926.31;4995419;28;20113;-68
2023/04/27 02:24:18;;;;;;;21.00;19.70;;;;;;;13.76;45.23;101920.34;4995800;28;20026;-68
2023/04/27 02:26:44;;;;;;;21.02;19.70;;;;;;;13.74;45.11;101917.84;4995302;28;20081;-68
2023/04/27 02:29:10;;;;;;;22.95;21.65;;;;;;;13.72;45.31;101916.44;4995293;28;20062;-67
2023/04/27 02:31:35;;;;;;;20.67;19.58;;;;;;;13.71;45.14;101917.47;4978171;28;20038;-67
2023/04/27 02:34:00;;;;;;;22.17;20.70;;;;;;;13.69;45.10;101920.44;4995212;28;20031;-68
2023/04/27 02:36:26;;;;;;;21.38;20.17;;;;;;;13.68;45.18;101921.47;4995181;28;20077;-68
2023/04/27 02:38:52;;;;;;;20.60;19.48;;;;;;;13.66;45.01;101914.63;4995206;28;20035;-68
2023/04/27 02:41:17;;;;;;;20.73;19.33;;;;;;;13.63;44.93;101915.94;4995105;28;20105;-68
2023/04/27 02:43:43;;;;;;;21.48;20.17;;;;;;;13.62;45.14;101909.69;4978068;28;20036;-68
2023/04/27 02:46:08;;;;;;;22.15;20.65;;;;;;;13.61;44.95;101912.63;4994641;28;20038;-68
2023/04/27 02:48:33;;;;;;;21.67;20.27;;;;;;;13.59;45.08;101917.47;4995007;28;20031;-68
2023/04/27 02:51:02;;;;;;;22.55;21.25;;;;;;;13.58;45.14;101910.38;4945446;28;20034;-67
2023/04/27 02:53:28;;;;;;;;;;;;;;;13.53;45.04;101921.97;4995593;28;20039;-68
2023/04/27 02:55:53;;;;;;;21.27;19.90;;;;;;;13.51;44.96;101913.22;4994865;28;20084;-69
2023/04/27 02:58:19;;;;;;;20.98;19.77;;;;;;;13.49;45.15;101909.91;4977669;28;20043;-69
2023/04/27 03:00:44;;;;;;;20.20;19.00;;;;;;;13.47;45.07;101912.00;4994804;28;20122;-68
2023/04/27 03:03:10;;;;;;;21.55;20.25;;;;;;;13.47;45.06;101916.63;4995125;28;20034;-68
2023/04/27 03:05:36;;;;;;;19.98;18.88;;;;;;;13.45;44.99;101911.41;4977023;28;20069;-68
2023/04/27 03:08:02;;;;;;;20.23;19.02;;;;;;;13.44;45.07;101915.19;4961610;28;20383;-68
2023/04/27 03:10:27;;;;;;;19.60;18.55;;;;;;;13.42;45.10;101915.44;4977290;28;20038;-68
2023/04/27 03:12:52;;;;;;;21.10;19.70;;;;;;;13.42;45.00;101912.72;4994609;28;20041;-68
2023/04/27 03:15:18;;;;;;;21.38;20.13;;;;;;;13.39;44.97;101915.91;4977088;28;20093;-67
2023/04/27 03:17:43;;;;;;;20.13;19.02;;;;;;;13.38;45.20;101918.84;4977117;28;20129;-67
2023/04/27 03:20:09;;;;;;;22.17;20.55;;;;;;;13.36;45.11;101915.53;4994352;28;20470;-67
2023/04/27 03:22:35;;;;;;;21.55;20.05;;;;;;;13.34;45.17;101921.19;4994327;28;20360;-67
2023/04/27 03:25:02;;;;;;;21.23;19.92;;;;;;;13.33;45.07;101916.84;4994297;28;20044;-67
2023/04/27 03:27:27;;;;;;;19.65;18.55;;;;;;;13.32;45.29;101917.88;4993679;28;20026;-69
2023/04/27 03:29:53;;;;;;;20.15;19.10;;;;;;;13.32;44.93;101927.91;4994368;28;20065;-68
2023/04/27 03:32:18;;;;;;;20.23;19.00;;;;;;;13.29;45.02;101926.50;4977023;28;20030;-68
2023/04/27 03:34:44;;;;;;;19.45;18.45;;;;;;;13.28;45.08;101926.72;4994309;28;20034;-68
2023/04/27 03:37:09;;;;;;;22.35;20.90;;;;;;;13.25;45.19;101933.41;4976778;28;20046;-68
2023/04/27 03:39:35;;;;;;;19.20;18.15;;;;;;;13.25;45.06;101935.28;4994547;28;20031;-68
2023/04/27 03:42:01;;;;;;;20.00;18.80;;;;;;;13.24;45.16;101930.94;4994138;28;20042;-69
2023/04/27 03:44:27;;;;;;;20.42;19.23;;;;;;;13.21;44.94;101935.75;4994105;28;20105;-68
2023/04/27 03:46:52;;;;;;;20.10;18.98;;;;;;;13.19;45.09;101932.44;4994055;28;20030;-68
2023/04/27 03:49:17;;;;;;;19.45;18.35;;;;;;;13.18;45.07;101936.22;4993748;28;20034;-69
2023/04/27 03:51:43;;;;;;;19.27;17.98;;;;;;;13.17;45.00;101933.72;4994340;28;20036;-69
2023/04/27 03:54:08;;;;;;;20.73;19.35;;;;;;;13.15;45.00;101943.97;4976561;28;20035;-67
2023/04/27 03:56:35;;;;;;;19.88;18.80;;;;;;;13.14;44.91;101939.63;4977285;28;20030;-69
2023/04/27 03:59:02;;;;;;;19.98;18.75;;;;;;;13.11;45.01;101938.19;4993917;28;20030;-69
2023/04/27 04:01:27;;;;;;;21.35;20.05;;;;;;;13.11;45.06;101931.97;4994303;28;20038;-69
2023/04/27 04:03:53;;;;;;;21.30;19.90;;;;;;;13.10;45.01;101933.00;4976505;28;20030;-69
2023/04/27 04:06:18;;;;;;;20.65;19.35;;;;;;;13.07;45.10;101934.28;4993203;28;20097;-69
2023/04/27 04:08:44;;;;;;;21.17;19.30;;;;;;;13.06;44.99;101940.78;4994257;28;20026;-69
2023/04/27 04:11:10;;;;;;;20.13;18.77;;;;;;;13.04;45.02;101942.88;4976597;28;20031;-68
2023/04/27 04:13:35;;;;;;;19.45;18.33;;;;;;;13.03;44.88;101938.53;4993931;28;20493;-68
2023/04/27 04:16:06;;;;;;;19.55;18.48;;;;;;;13.02;44.98;101941.47;4976780;28;20121;-70
2023/04/27 04:18:31;;;;;;;19.33;18.05;;;;;;;12.98;45.07;101933.78;4993949;28;20041;-68
2023/04/27 04:20:57;;;;;;;19.92;18.70;;;;;;;12.97;45.08;101936.72;4993783;28;20035;-68
2023/04/27 04:23:23;;;;;;;19.88;18.67;;;;;;;12.94;45.14;101932.59;4975973;28;20070;-67
2023/04/27 04:25:48;;;;;;;19.90;18.75;;;;;;;12.93;45.16;101946.38;4976213;28;20026;-68
2023/04/27 04:28:14;;;;;;;22.17;20.67;;;;;;;12.91;45.14;101943.06;4994108;28;20036;-69
2023/04/27 04:30:39;;;;;;;20.75;19.35;;;;;;;12.90;45.25;101944.13;4994002;28;20374;-68
2023/04/27 04:33:05;;;;;;;20.38;19.23;;;;;;;12.88;45.06;101949.78;4993572;28;20042;-69
2023/04/27 04:35:34;;;;;;;20.45;19.25;;;;;;;12.87;45.29;101950.81;4993747;28;20031;-68
2023/04/27 04:37:59;;;;;;;19.02;17.77;;;;;;;12.86;44.99;101951.88;4993722;28;20042;-68
2023/04/27 04:40:25;;;;;;;19.33;18.13;;;;;;;12.84;45.03;101959.41;4997897;28;20038;-69
2023/04/27 04:42:51;;;;;;;18.80;17.70;;;;;;;12.83;45.07;101960.50;4997574;28;20426;-69
2023/04/27 04:45:17;;;;;;;19.60;18.40;;;;;;;12.81;45.10;101957.16;4997117;28;20070;-68
2023/04/27 04:47:42;;;;;;;19.55;18.45;;;;;;;12.80;45.09;101955.53;4997516;28;20035;-68
2023/04/27 04:50:12;;;;;;;19.60;18.38;;;;;;;12.80;45.16;101960.09;4997088;28;20034;-69
2023/04/27 04:52:37;;;;;;;20.77;19.60;;;;;;;12.77;44.99;101964.09;4997197;28;20031;-70
2023/04/27 04:55:03;;;;;;;20.13;18.83;;;;;;;12.75;44.93;101967.03;4997588;28;20034;-68
2023/04/27 04:57:29;;;;;;;19.92;18.52;;;;;;;12.74;45.06;101962.66;4997485;28;20038;-69
2023/04/27 04:59:55;;;;;;;18.88;17.67;;;;;;;12.74;45.23;101968.09;4996998;28;20037;-68
2023/04/27 05:02:20;;;;;;;20.48;19.17;;;;;;;12.73;45.11;101968.34;4996892;28;20030;-68
2023/04/27 05:04:46;;;;;;;20.23;18.83;;;;;;;12.71;45.10;101965.84;4996691;28;20117;-68
2023/04/27 05:07:11;;;;;;;20.25;18.95;;;;;;;12.70;44.81;101972.31;4979111;28;20054;-69
2023/04/27 05:09:37;;;;;;;18.92;17.83;;;;;;;12.69;44.99;101967.13;4996505;28;20062;-69
2023/04/27 05:12:03;;;;;;;17.73;16.73;;;;;;;12.67;45.00;101967.34;4997344;28;20395;-69
2023/04/27 05:14:28;;;;;;;19.55;18.35;;;;;;;12.66;45.01;101973.81;4996417;28;20081;-70
2023/04/27 05:16:54;;;;;;;20.75;19.48;;;;;;;12.65;45.14;101969.47;4996962;28;20089;-65
2023/04/27 05:19:19;;;;;;;19.58;18.48;;;;;;;12.63;45.02;101968.84;4996616;28;20035;-66
2023/04/27 05:21:45;;;;;;;18.30;17.30;;;;;;;12.62;45.09;101978.03;4997363;28;20027;-66
2023/04/27 05:24:11;;;;;;;19.50;18.35;;;;;;;12.62;45.03;101977.19;4996508;28;20387;-67
2023/04/27 05:26:37;;;;;;;19.05;17.95;;;;;;;12.60;45.04;101974.75;4996578;28;20128;-64
2023/04/27 05:29:02;;;;;;;19.65;18.38;;;;;;;12.59;44.89;101983.09;4979207;28;20490;-66
2023/04/27 05:31:28;;;;;;;19.83;18.20;;;;;;;12.56;45.26;101985.19;4996134;28;20532;-66
2023/04/27 05:33:53;;;;;;;18.98;17.73;;;;;;;12.55;44.84;101983.53;4996456;28;20485;-66
2023/04/27 05:36:19;;;;;;;20.27;18.60;;;;;;;12.53;45.07;101984.81;4996375;28;20113;-66
2023/04/27 05:38:44;;;;;;;19.42;18.15;;;;;;;12.52;45.13;101983.16;4996028;28;20118;-66
2023/04/27 05:41:10;;;;;;;19.73;18.70;;;;;;;12.52;45.06;101988.56;4995822;28;20109;-67
2023/04/27 05:43:37;;;;;;;19.13;17.92;;;;;;;12.49;45.01;101992.56;4996258;28;20034;-66
2023/04/27 05:46:03;;;;;;;19.55;18.25;;;;;;;12.50;45.16;101991.53;4996738;28;20093;-66
2023/04/27 05:48:28;;;;;;;19.23;17.92;;;;;;;12.49;45.16;101991.72;4995855;28;20457;-66
2023/04/27 05:51:01;;;;;;;18.77;17.67;;;;;;;12.49;45.14;101986.31;4995460;28;20375;-66
2023/04/27 05:53:27;;;;;;;20.63;19.02;;;;;;;12.47;45.04;101983.00;4996445;28;20130;-66
2023/04/27 05:55:52;;;;;;;19.50;18.20;;;;;;;12.46;45.10;101984.88;4996018;28;20066;-67
2023/04/27 05:58:18;;;;;;;20.13;18.73;;;;;;;12.46;45.07;101989.47;4996346;28;20041;-67
2023/04/27 06:00:43;;;;;;;19.42;17.92;;;;;;;12.45;45.16;101988.66;4995819;28;20073;-66
2023/04/27 06:03:09;;;;;;;18.70;17.55;;;;;;;12.45;45.10;101988.66;4996121;28;20034;-67
2023/04/27 06:05:34;;;;;;;19.77;18.58;;;;;;;12.45;45.18;101994.06;4978249;28;20030;-67
2023/04/27 06:08:00;;;;;;;20.42;19.02;;;;;;;12.45;44.93;101987.84;4996061;28;20062;-67
2023/04/27 06:10:25;;;;;;;19.40;18.20;;;;;;;12.45;45.06;101988.66;4978827;28;20034;-67
2023/04/27 06:12:51;;;;;;;19.23;18.00;;;;;;;12.44;45.13;101978.03;4978766;28;20030;-67
2023/04/27 06:15:16;;;;;;;19.48;18.20;;;;;;;12.45;45.24;101974.28;4995649;28;20043;-67
2023/04/27 06:17:44;;;;;;;19.63;18.42;;;;;;;12.45;45.16;101985.13;4995409;28;20039;-68
2023/04/27 06:20:10;;;;;;;18.27;17.27;;;;;;;12.45;45.19;101990.53;4995843;28;20029;-68
2023/04/27 06:22:36;;;;;;;18.95;17.85;;;;;;;12.46;45.22;101994.91;4995606;28;20113;-67
2023/04/27 06:25:06;;;;;;;18.65;17.45;;;;;;;12.46;44.98;101998.44;4995426;28;20378;-67
2023/04/27 06:27:32;;;;;;;20.35;18.88;;;;;;;12.45;45.24;101994.06;4995276;28;20030;-68
2023/04/27 06:29:58;;;;;;;18.88;17.60;;;;;;;12.46;45.24;102006.56;4995344;28;20036;-68
2023/04/27 06:32:24;;;;;;;20.38;19.00;;;;;;;12.46;45.25;101993.00;4995201;28;20109;-68
2023/04/27 06:34:50;;;;;;;19.30;18.08;;;;;;;12.47;45.33;101993.84;4996048;28;20335;-67
2023/04/27 06:37:16;;;;;;;21.45;19.75;;;;;;;12.47;45.27;101988.41;4995552;28;20057;-68
2023/04/27 06:39:44;;;;;;;18.30;17.27;;;;;;;12.46;45.23;101990.31;4996018;28;20089;-68
2023/04/27 06:42:10;;;;;;;18.65;17.45;;;;;;;12.46;45.28;101986.78;4995927;28;20084;-68
2023/04/27 06:44:35;;;;;;;20.58;19.33;;;;;;;12.46;45.22;101994.91;4995510;28;20034;-67
2023/04/27 06:47:01;;;;;;;18.63;17.38;;;;;;;12.46;45.16;101989.47;4977527;28;20531;-67
2023/04/27 06:49:26;;;;;;;20.25;18.65;;;;;;;12.47;45.45;101991.97;4994719;28;20026;-67
2023/04/27 06:51:51;;;;;;;17.42;16.42;;;;;;;12.48;45.27;101988.19;4994769;28;20034;-68
2023/04/27 06:54:17;;;;;;;19.27;18.02;;;;;;;12.51;45.33;101976.09;4994860;28;20402;-68
2023/04/27 06:56:43;;;;;;;19.23;17.92;;;;;;;12.52;45.36;101983.16;4995185;28;20109;-68
2023/04/27 06:59:09;;;;;;;17.35;16.40;;;;;;;12.51;45.53;101984.22;4994801;28;20030;-68
2023/04/27 07:01:34;;;;;;;19.50;18.35;;;;;;;12.52;45.44;101975.88;4976681;28;20026;-67
2023/04/27 07:04:00;;;;;;;20.67;19.33;;;;;;;12.53;45.51;101979.41;4977282;28;20435;-68
2023/04/27 07:06:25;;;;;;;20.75;18.98;;;;;;;12.53;45.59;101973.97;4977033;28;20104;-68
2023/04/27 07:08:51;;;;;;;19.85;18.33;;;;;;;12.52;45.76;101978.56;4994681;28;20033;-68
2023/04/27 07:11:16;;;;;;;18.13;17.00;;;;;;;12.54;45.79;101991.88;4994869;28;20045;-68
2023/04/27 07:13:42;;;;;;;20.30;18.95;;;;;;;12.53;45.59;101985.66;4994269;28;20030;-68
2023/04/27 07:16:07;;;;;;;20.05;18.67;;;;;;;12.56;45.76;101984.38;4977945;28;20085;-67
2023/04/27 07:18:33;;;;;;;19.95;18.55;;;;;;;12.59;45.89;101983.09;4977780;28;20032;-68
2023/04/27 07:20:58;;;;;;;20.95;19.63;;;;;;;12.60;45.67;101980.16;4976913;28;20113;-67
2023/04/27 07:23:24;;;;;;;21.17;19.73;;;;;;;12.63;45.83;101984.31;4961558;28;20031;-67
2023/04/27 07:25:50;;;;;;;20.25;18.98;;;;;;;12.64;46.23;101978.63;4994914;28;20434;-67
2023/04/27 07:28:16;;;;;;;18.90;17.70;;;;;;;12.67;45.95;101983.59;4994259;28;20073;-67
2023/04/27 07:30:41;;;;;;;21.95;20.42;;;;;;;12.70;45.97;101979.59;4994207;28;20027;-67
2023/04/27 07:33:08;;;;;;;19.13;17.83;;;;;;;12.73;46.25;101987.31;4994817;28;20026;-67
2023/04/27 07:35:34;;;;;;;19.98;18.63;;;;;;;12.75;46.06;101988.75;4976688;28;20099;-67
2023/04/27 07:38:03;;;;;;;18.30;17.30;;;;;;;12.78;46.22;101991.00;4994197;28;20029;-67
2023/04/27 07:40:29;;;;;;;20.75;18.88;;;;;;;12.81;46.00;101980.75;4994066;28;20031;-68
2023/04/27 07:42:55;;;;;;;20.80;19.48;;;;;;;12.84;46.44;101981.13;4994209;28;20049;-68
2023/04/27 07:45:21;;;;;;;19.73;18.40;;;;;;;12.88;46.52;101982.31;4976658;28;20446;-68
2023/04/27 07:47:47;;;;;;;20.55;18.60;;;;;;;12.91;46.34;101976.44;4993984;28;20477;-68
2023/04/27 07:50:16;;;;;;;22.02;20.67;;;;;;;12.95;46.38;101972.22;4994112;28;20026;-68
2023/04/27 07:52:42;;;;;;;18.55;17.40;;;;;;;13.01;46.71;101981.31;4994011;28;20029;-68
2023/04/27 07:55:08;;;;;;;21.90;19.75;;;;;;;13.04;46.56;101975.44;4994011;28;20026;-68
2023/04/27 07:57:34;;;;;;;22.38;20.48;;;;;;;13.10;46.57;101977.25;4994206;28;20038;-68
2023/04/27 07:59:59;;;;;;;20.05;18.75;;;;;;;13.14;46.57;101980.31;4994593;28;20361;-68
2023/04/27 08:02:29;;;;;;;19.92;18.52;;;;;;;13.17;46.63;101983.38;4960602;28;20358;-67
2023/04/27 08:04:54;;;;;;;20.92;19.45;;;;;;;13.24;46.80;101985.19;4994129;28;20470;-68
2023/04/27 08:07:20;;;;;;;21.08;19.60;;;;;;;13.29;46.59;101982.66;4993498;28;20046;-68
2023/04/27 08:09:45;;;;;;;21.45;19.75;;;;;;;13.34;46.65;101988.22;4994165;28;20057;-68
2023/04/27 08:12:11;;;;;;;20.02;18.70;;;;;;;13.38;46.93;101992.09;4994149;28;20037;-68
2023/04/27 08:14:36;;;;;;;20.33;19.13;;;;;;;13.44;46.96;101984.94;4997260;28;20429;-68
2023/04/27 08:17:02;;;;;;;21.33;19.63;;;;;;;13.49;46.89;101977.75;4998178;28;20085;-68
2023/04/27 08:19:27;;;;;;;21.52;20.10;;;;;;;13.55;46.63;101978.72;4997495;28;20029;-68
2023/04/27 08:21:52;;;;;;;21.88;20.25;;;;;;;13.60;46.77;101957.13;4998318;28;20109;-68
2023/04/27 08:24:19;;;;;;;21.50;20.08;;;;;;;13.66;46.71;101961.63;4997674;28;20433;-68
2023/04/27 08:26:45;;;;;;;20.58;19.15;;;;;;;13.71;46.92;101960.91;4997440;28;20030;-68
2023/04/27 08:29:10;;;;;;;19.55;18.40;;;;;;;13.77;47.06;101958.09;4998121;28;20026;-68
2023/04/27 08:31:36;;;;;;;23.52;21.92;;;;;;;13.82;46.92;101949.25;4997408;28;20034;-68
2023/04/27 08:34:01;;;;;;;21.15;19.75;;;;;;;13.88;47.34;101959.16;4980119;28;20092;-68
2023/04/27 08:36:27;;;;;;;24.45;22.58;;;;;;;13.95;46.73;101965.31;4997370;28;20482;-68
2023/04/27 08:38:53;;;;;;;21.05;19.75;;;;;;;14.01;46.65;101961.66;4979604;28;20113;-68
2023/04/27 08:41:20;;;;;;;21.70;20.30;;;;;;;14.07;47.00;101959.91;4997359;28;20038;-68
2023/04/27 08:43:45;;;;;;;21.30;19.80;;;;;;;14.15;46.86;101958.72;4979838;28;20027;-68
2023/04/27 08:46:11;;;;;;;22.50;21.17;;;;;;;14.19;46.96;101952.56;4997580;28;20026;-68
2023/04/27 08:48:36;;;;;;;23.50;21.92;;;;;;;14.24;47.04;101947.25;4979198;28;20041;-68
2023/04/27 08:51:09;;;;;;;22.50;21.10;;;;;;;14.31;47.09;101949.00;4997239;28;20030;-68
2023/04/27 08:53:35;;;;;;;24.42;22.80;;;;;;;14.37;47.06;101950.78;4997667;28;20034;-68
2023/04/27 08:56:00;;;;;;;23.40;21.85;;;;;;;14.42;47.16;101957.16;4979817;28;20118;-68
2023/04/27 08:58:36;;;;;;;22.33;20.90;;;;;;;14.49;47.13;101943.44;4997113;28;20038;-69
2023/04/27 09:01:05;;;;;;;23.85;22.55;;;;;;;14.55;47.14;101944.41;4979523;28;20455;-68
2023/04/27 09:03:31;;;;;;;24.27;22.67;;;;;;;14.63;47.04;101947.56;4979297;28;20417;-68
2023/04/27 09:05:56;;;;;;;23.17;21.55;;;;;;;14.71;47.26;101959.94;4997512;28;20060;-68
2023/04/27 09:08:21;;;;;;;23.15;21.85;;;;;;;14.79;46.92;101956.88;4997336;28;20051;-68
2023/04/27 09:10:49;;;;;;;25.30;23.52;;;;;;;14.88;47.15;101943.72;4997345;28;20438;-68
2023/04/27 09:13:15;;;;;;;23.05;21.55;;;;;;;14.96;47.00;101954.19;4996731;28;20023;-68
2023/04/27 09:15:49;;;;;;;26.67;24.70;;;;;;;15.04;46.72;101952.97;4996511;28;20022;-68
2023/04/27 09:18:23;;;;;;;25.25;23.73;;;;;;;15.10;46.79;101952.84;4997084;28;20428;-68
2023/04/27 09:20:50;;;;;;;24.25;22.55;;;;;;;15.19;46.82;101947.00;4996955;28;20023;-68
2023/04/27 09:23:26;;;;;;;25.40;23.65;;;;;;;15.25;46.67;101946.03;4996715;28;20152;-68
2023/04/27 09:25:52;;;;;;;23.58;21.85;;;;;;;15.32;46.50;101952.13;4978295;28;20034;-68
2023/04/27 09:28:18;;;;;;;23.08;21.42;;;;;;;15.38;46.52;101948.44;4996591;28;20070;-68
2023/04/27 09:30:52;;;;;;;27.38;25.58;;;;;;;15.46;46.64;101941.78;4996228;28;20466;-68
2023/04/27 09:33:23;;;;;;;23.67;21.92;;;;;;;15.52;46.67;101946.22;4979593;28;20122;-68
2023/04/27 09:35:49;;;;;;;26.38;24.25;;;;;;;15.58;46.37;101935.19;4996487;28;20077;-68
2023/04/27 09:38:17;;;;;;;23.25;21.85;;;;;;;15.63;46.45;101937.16;4996083;28;20105;-68
2023/04/27 09:40:42;;;;;;;26.88;25.17;;;;;;;15.71;46.94;101941.41;4996277;28;20030;-68
2023/04/27 09:43:09;;;;;;;25.17;23.45;;;;;;;15.77;46.51;101929.50;4996300;28;20027;-68
2023/04/27 09:45:36;;;;;;;25.42;23.85;;;;;;;15.83;46.41;101935.88;4996175;28;20026;-68
2023/04/27 09:48:03;;;;;;;26.05;24.45;;;;;;;15.89;46.35;101934.88;4996385;28;20034;-69
2023/04/27 09:50:30;;;;;;;27.13;24.88;;;;;;;15.95;46.51;101929.25;4996046;28;20394;-68
2023/04/27 09:52:56;;;;;;;25.77;24.23;;;;;;;16.01;46.47;101925.53;4996461;28;20092;-68
2023/04/27 09:55:28;;;;;;;24.35;22.98;;;;;;;16.09;46.64;101927.00;4978695;28;20034;-68
2023/04/27 09:58:26;;;;;;;26.08;24.52;;;;;;;16.13;46.36;101927.34;4979161;28;20344;-68
2023/04/27 10:01:03;;;;;;;23.97;22.57;;;;;;;16.19;46.28;101926.31;4980288;28;20100;-68
2023/04/27 10:03:49;;;;;;;26.63;25.00;;;;;;;16.22;46.96;101925.81;4996199;28;20027;-68
2023/04/27 10:06:33;;;;;;;25.20;23.27;;;;;;;16.28;46.36;101934.88;4995742;28;20022;-68
2023/04/27 10:09:03;;;;;;;24.92;23.52;;;;;;;16.32;46.63;101928.69;4996351;28;20042;-68
2023/04/27 10:11:38;;;;;;;26.98;25.45;;;;;;;16.39;46.66;101931.22;4995847;28;20037;-68
2023/04/27 10:14:09;;;;;;;25.77;24.27;;;;;;;16.46;46.90;101922.88;4995797;28;20026;-69
2023/04/27 10:16:52;;;;;;;27.45;25.50;;;;;;;16.51;46.23;101934.66;4978484;28;20061;-68
2023/04/27 10:19:19;;;;;;;27.90;26.27;;;;;;;16.56;46.21;101925.72;4995452;28;20370;-68
2023/04/27 10:21:55;;;;;;;28.17;26.35;;;;;;;16.60;46.32;101929.56;4995492;28;20038;-68
2023/04/27 10:24:40;;;;;;;25.80;24.50;;;;;;;16.64;46.43;101937.00;4977820;28;20121;-68
2023/04/27 10:27:07;;;;;;;26.45;24.85;;;;;;;16.69;46.41;101928.06;4995448;28;20073;-68
2023/04/27 10:29:40;;;;;;;25.38;23.80;;;;;;;16.76;46.40;101933.34;4995828;28;20042;-68
2023/04/27 10:32:12;;;;;;;26.77;25.25;;;;;;;16.80;46.88;101926.28;4995365;28;20019;-68
2023/04/27 10:34:38;;;;;;;29.30;27.17;;;;;;;16.85;46.58;101924.44;4995225;28;20113;-68
2023/04/27 10:37:10;;;;;;;29.02;27.23;;;;;;;16.91;46.13;101916.31;4994882;28;20081;-68
2023/04/27 10:39:43;;;;;;;28.17;26.48;;;;;;;16.96;46.13;101910.91;4995181;28;20022;-69
2023/04/27 10:42:10;;;;;;;27.80;26.15;;;;;;;17.01;46.25;101905.50;4978505;28;20145;-68
2023/04/27 10:44:36;;;;;;;28.25;26.13;;;;;;;17.05;46.03;101893.00;4977797;28;20033;-69
2023/04/27 10:47:12;;;;;;;27.13;25.42;;;;;;;17.08;45.62;101893.31;4994729;28;20141;-68
2023/04/27 10:49:38;;;;;;;27.08;25.55;;;;;;;17.13;45.81;101899.88;4995187;28;20026;-69
2023/04/27 10:52:05;;;;;;;28.45;26.63;;;;;;;17.16;45.67;101900.22;4995244;28;20042;-68
2023/04/27 10:54:31;;;;;;;27.83;26.25;;;;;;;17.20;45.77;101895.06;4995283;28;20066;-68
2023/04/27 10:57:04;;;;;;;28.05;26.42;;;;;;;17.24;45.20;101888.81;4994855;28;20023;-68
2023/04/27 10:59:29;;;;;;;27.85;26.15;;;;;;;17.27;45.41;101879.28;4977315;28;20033;-68
2023/04/27 11:01:54;;;;;;;27.38;25.63;;;;;;;17.30;45.40;101879.56;4994959;28;20026;-68
2023/04/27 11:04:20;;;;;;;27.60;26.02;;;;;;;17.35;45.73;101884.25;4994788;28;20034;-68
2023/04/27 11:06:45;;;;;;;30.08;27.95;;;;;;;17.38;45.67;101885.66;4994538;28;20112;-68